sensor_id;sensor_type;location;lat;lon;timestamp;temperature;humidity
26035;DHT22;13809;48.632;11.576;2024-02-14T00:01:46;6.80;36.60
26035;DHT22;13809;48.632;11.576;2024-02-14T00:06:50;6.70;36.70
26035;DHT22;13809;48.632;11.576;2024-02-14T00:11:54;6.70;36.60
26035;DHT22;13809;48.632;11.576;2024-02-14T00:16:59;6.60;36.70
26035;DHT22;13809;48.632;11.576;2024-02-14T00:22:03;6.60;37.00
26035;DHT22;13809;48.632;11.576;2024-02-14T00:27:06;6.70;36.90
26035;DHT22;13809;48.632;11.576;2024-02-14T00:32:11;6.70;36.60
26035;DHT22;13809;48.632;11.576;2024-02-14T00:37:14;6.60;36.60
26035;DHT22;13809;48.632;11.576;2024-02-14T00:42:17;6.50;36.70
26035;DHT22;13809;48.632;11.576;2024-02-14T00:47:22;6.40;36.80
26035;DHT22;13809;48.632;11.576;2024-02-14T00:52:25;6.40;37.10
26035;DHT22;13809;48.632;11.576;2024-02-14T00:57:29;6.30;37.10
26035;DHT22;13809;48.632;11.576;2024-02-14T01:02:35;6.30;37.10
26035;DHT22;13809;48.632;11.576;2024-02-14T01:07:38;6.30;37.40
26035;DHT22;13809;48.632;11.576;2024-02-14T01:12:42;6.30;37.40
26035;DHT22;13809;48.632;11.576;2024-02-14T01:17:46;6.30;37.40
26035;DHT22;13809;48.632;11.576;2024-02-14T01:22:50;6.30;37.40
26035;DHT22;13809;48.632;11.576;2024-02-14T01:27:54;6.30;37.20
26035;DHT22;13809;48.632;11.576;2024-02-14T01:32:59;6.10;37.20
26035;DHT22;13809;48.632;11.576;2024-02-14T01:38:04;5.90;37.50
26035;DHT22;13809;48.632;11.576;2024-02-14T01:43:07;5.90;37.50
26035;DHT22;13809;48.632;11.576;2024-02-14T01:48:12;5.90;37.50
26035;DHT22;13809;48.632;11.576;2024-02-14T01:53:20;6.00;37.60
26035;DHT22;13809;48.632;11.576;2024-02-14T01:58:25;5.90;37.50
26035;DHT22;13809;48.632;11.576;2024-02-14T02:03:30;5.90;37.50
26035;DHT22;13809;48.632;11.576;2024-02-14T02:08:38;5.80;37.80
26035;DHT22;13809;48.632;11.576;2024-02-14T02:13:41;5.80;37.90
26035;DHT22;13809;48.632;11.576;2024-02-14T02:18:47;5.80;38.20
26035;DHT22;13809;48.632;11.576;2024-02-14T02:23:55;5.90;38.70
26035;DHT22;13809;48.632;11.576;2024-02-14T02:28:58;6.00;38.50
26035;DHT22;13809;48.632;11.576;2024-02-14T02:34:02;6.00;38.10
26035;DHT22;13809;48.632;11.576;2024-02-14T02:39:07;6.00;38.20
26035;DHT22;13809;48.632;11.576;2024-02-14T02:44:10;6.00;38.70
26035;DHT22;13809;48.632;11.576;2024-02-14T02:49:13;6.10;38.60
26035;DHT22;13809;48.632;11.576;2024-02-14T02:54:18;6.20;38.50
26035;DHT22;13809;48.632;11.576;2024-02-14T02:59:22;6.20;38.50
26035;DHT22;13809;48.632;11.576;2024-02-14T03:04:25;6.20;38.60
26035;DHT22;13809;48.632;11.576;2024-02-14T03:09:50;6.20;38.80
26035;DHT22;13809;48.632;11.576;2024-02-14T03:14:53;6.30;39.00
26035;DHT22;13809;48.632;11.576;2024-02-14T03:19:57;6.30;38.60
26035;DHT22;13809;48.632;11.576;2024-02-14T03:25:05;6.40;38.30
26035;DHT22;13809;48.632;11.576;2024-02-14T03:30:09;6.50;38.40
26035;DHT22;13809;48.632;11.576;2024-02-14T03:35:15;6.50;38.00
26035;DHT22;13809;48.632;11.576;2024-02-14T03:40:21;6.50;38.00
26035;DHT22;13809;48.632;11.576;2024-02-14T03:45:25;6.50;38.00
26035;DHT22;13809;48.632;11.576;2024-02-14T03:50:31;6.50;38.00
26035;DHT22;13809;48.632;11.576;2024-02-14T03:55:36;6.40;37.90
26035;DHT22;13809;48.632;11.576;2024-02-14T04:00:39;6.30;38.20
26035;DHT22;13809;48.632;11.576;2024-02-14T04:05:42;6.30;38.00
26035;DHT22;13809;48.632;11.576;2024-02-14T04:10:47;6.40;37.90
26035;DHT22;13809;48.632;11.576;2024-02-14T04:15:52;6.40;38.00
26035;DHT22;13809;48.632;11.576;2024-02-14T04:20:55;6.40;37.90
26035;DHT22;13809;48.632;11.576;2024-02-14T04:25:59;6.40;37.90
26035;DHT22;13809;48.632;11.576;2024-02-14T04:31:03;6.40;37.90
26035;DHT22;13809;48.632;11.576;2024-02-14T04:36:06;6.40;37.90
26035;DHT22;13809;48.632;11.576;2024-02-14T04:41:11;6.40;37.90
26035;DHT22;13809;48.632;11.576;2024-02-14T04:46:14;6.40;38.00
26035;DHT22;13809;48.632;11.576;2024-02-14T04:51:17;6.40;38.00
26035;DHT22;13809;48.632;11.576;2024-02-14T04:56:22;6.50;38.30
26035;DHT22;13809;48.632;11.576;2024-02-14T05:01:25;6.50;38.50
26035;DHT22;13809;48.632;11.576;2024-02-14T05:06:28;6.60;38.10
26035;DHT22;13809;48.632;11.576;2024-02-14T05:11:33;6.60;38.10
26035;DHT22;13809;48.632;11.576;2024-02-14T05:16:36;6.70;38.50
26035;DHT22;13809;48.632;11.576;2024-02-14T05:21:39;6.60;38.30
26035;DHT22;13809;48.632;11.576;2024-02-14T05:26:44;6.60;38.50
26035;DHT22;13809;48.632;11.576;2024-02-14T05:31:47;6.60;38.90
26035;DHT22;13809;48.632;11.576;2024-02-14T05:36:51;6.50;39.00
26035;DHT22;13809;48.632;11.576;2024-02-14T05:41:55;6.50;39.20
26035;DHT22;13809;48.632;11.576;2024-02-14T05:46:59;6.60;39.40
26035;DHT22;13809;48.632;11.576;2024-02-14T05:52:03;6.60;39.20
26035;DHT22;13809;48.632;11.576;2024-02-14T05:57:08;6.70;39.40
26035;DHT22;13809;48.632;11.576;2024-02-14T06:02:11;6.80;39.40
26035;DHT22;13809;48.632;11.576;2024-02-14T06:07:15;6.80;39.30
26035;DHT22;13809;48.632;11.576;2024-02-14T06:12:19;6.80;39.40
26035;DHT22;13809;48.632;11.576;2024-02-14T06:17:23;6.90;39.70
26035;DHT22;13809;48.632;11.576;2024-02-14T06:22:28;6.90;39.50
26035;DHT22;13809;48.632;11.576;2024-02-14T06:27:32;7.10;39.60
26035;DHT22;13809;48.632;11.576;2024-02-14T06:32:36;7.10;39.60
26035;DHT22;13809;48.632;11.576;2024-02-14T06:37:39;7.20;39.30
26035;DHT22;13809;48.632;11.576;2024-02-14T06:42:57;7.20;39.20
26035;DHT22;13809;48.632;11.576;2024-02-14T06:48:03;7.30;39.50
26035;DHT22;13809;48.632;11.576;2024-02-14T06:53:06;7.30;39.30
26035;DHT22;13809;48.632;11.576;2024-02-14T06:58:11;7.40;39.40
26035;DHT22;13809;48.632;11.576;2024-02-14T07:03:14;7.40;39.60
26035;DHT22;13809;48.632;11.576;2024-02-14T07:08:18;7.40;39.30
26035;DHT22;13809;48.632;11.576;2024-02-14T07:13:23;7.50;39.30
26035;DHT22;13809;48.632;11.576;2024-02-14T07:18:27;7.50;39.40
26035;DHT22;13809;48.632;11.576;2024-02-14T07:23:30;7.60;39.50
26035;DHT22;13809;48.632;11.576;2024-02-14T07:28:35;7.60;39.50
26035;DHT22;13809;48.632;11.576;2024-02-14T07:33:39;7.60;39.60
26035;DHT22;13809;48.632;11.576;2024-02-14T07:38:43;7.60;39.30
26035;DHT22;13809;48.632;11.576;2024-02-14T07:43:47;7.60;39.50
26035;DHT22;13809;48.632;11.576;2024-02-14T07:48:50;7.70;39.80
26035;DHT22;13809;48.632;11.576;2024-02-14T07:53:54;7.80;39.70
26035;DHT22;13809;48.632;11.576;2024-02-14T07:58:59;7.80;39.70
26035;DHT22;13809;48.632;11.576;2024-02-14T08:04:02;7.90;40.00
26035;DHT22;13809;48.632;11.576;2024-02-14T08:09:06;8.00;39.90
26035;DHT22;13809;48.632;11.576;2024-02-14T08:14:13;8.00;39.60
26035;DHT22;13809;48.632;11.576;2024-02-14T08:19:16;8.00;40.10
26035;DHT22;13809;48.632;11.576;2024-02-14T08:24:20;8.10;39.90
26035;DHT22;13809;48.632;11.576;2024-02-14T08:29:26;8.10;40.00
26035;DHT22;13809;48.632;11.576;2024-02-14T08:34:29;8.20;40.40
26035;DHT22;13809;48.632;11.576;2024-02-14T08:39:33;8.30;41.10
26035;DHT22;13809;48.632;11.576;2024-02-14T08:44:37;8.40;40.60
26035;DHT22;13809;48.632;11.576;2024-02-14T08:49:40;8.50;40.70
26035;DHT22;13809;48.632;11.576;2024-02-14T08:54:44;8.70;40.70
26035;DHT22;13809;48.632;11.576;2024-02-14T08:59:49;8.80;40.60
26035;DHT22;13809;48.632;11.576;2024-02-14T09:04:52;8.90;40.70
26035;DHT22;13809;48.632;11.576;2024-02-14T09:09:56;9.00;40.70
26035;DHT22;13809;48.632;11.576;2024-02-14T09:15:01;9.20;40.60
26035;DHT22;13809;48.632;11.576;2024-02-14T09:20:08;9.30;41.00
26035;DHT22;13809;48.632;11.576;2024-02-14T09:25:11;9.50;41.00
26035;DHT22;13809;48.632;11.576;2024-02-14T09:30:17;9.60;40.70
26035;DHT22;13809;48.632;11.576;2024-02-14T09:35:33;9.80;40.70
26035;DHT22;13809;48.632;11.576;2024-02-14T09:40:37;9.90;40.80
26035;DHT22;13809;48.632;11.576;2024-02-14T09:45:42;10.00;40.60
26035;DHT22;13809;48.632;11.576;2024-02-14T09:50:48;10.10;40.00
26035;DHT22;13809;48.632;11.576;2024-02-14T09:55:53;10.30;40.20
26035;DHT22;13809;48.632;11.576;2024-02-14T10:00:58;10.40;40.30
26035;DHT22;13809;48.632;11.576;2024-02-14T10:06:02;10.50;39.70
26035;DHT22;13809;48.632;11.576;2024-02-14T10:11:08;10.60;39.90
26035;DHT22;13809;48.632;11.576;2024-02-14T10:16:14;10.80;40.00
26035;DHT22;13809;48.632;11.576;2024-02-14T10:21:18;10.90;39.80
26035;DHT22;13809;48.632;11.576;2024-02-14T10:26:21;11.10;39.90
26035;DHT22;13809;48.632;11.576;2024-02-14T10:31:26;11.30;39.90
26035;DHT22;13809;48.632;11.576;2024-02-14T10:36:30;11.50;39.70
26035;DHT22;13809;48.632;11.576;2024-02-14T10:41:36;11.80;39.50
26035;DHT22;13809;48.632;11.576;2024-02-14T10:46:41;12.00;39.60
26035;DHT22;13809;48.632;11.576;2024-02-14T10:51:47;12.20;39.40
26035;DHT22;13809;48.632;11.576;2024-02-14T10:56:54;12.50;39.50
26035;DHT22;13809;48.632;11.576;2024-02-14T11:02:00;12.80;38.80
26035;DHT22;13809;48.632;11.576;2024-02-14T11:07:09;13.20;38.30
26035;DHT22;13809;48.632;11.576;2024-02-14T11:12:12;13.50;37.30
26035;DHT22;13809;48.632;11.576;2024-02-14T11:17:19;13.70;37.80
26035;DHT22;13809;48.632;11.576;2024-02-14T11:22:34;13.80;36.90
26035;DHT22;13809;48.632;11.576;2024-02-14T11:27:44;13.80;37.20
26035;DHT22;13809;48.632;11.576;2024-02-14T11:32:49;13.80;37.40
26035;DHT22;13809;48.632;11.576;2024-02-14T11:37:52;13.80;37.80
26035;DHT22;13809;48.632;11.576;2024-02-14T11:42:56;13.80;37.80
26035;DHT22;13809;48.632;11.576;2024-02-14T11:48:01;13.80;37.70
26035;DHT22;13809;48.632;11.576;2024-02-14T11:53:04;13.70;37.20
26035;DHT22;13809;48.632;11.576;2024-02-14T11:58:11;13.70;37.70
26035;DHT22;13809;48.632;11.576;2024-02-14T12:03:18;13.70;37.60
26035;DHT22;13809;48.632;11.576;2024-02-14T12:08:23;13.70;37.50
26035;DHT22;13809;48.632;11.576;2024-02-14T12:13:26;13.80;37.90
26035;DHT22;13809;48.632;11.576;2024-02-14T12:18:35;14.00;38.10
26035;DHT22;13809;48.632;11.576;2024-02-14T12:23:39;14.10;37.50
26035;DHT22;13809;48.632;11.576;2024-02-14T12:28:46;14.20;37.90
26035;DHT22;13809;48.632;11.576;2024-02-14T12:33:50;14.30;37.10
26035;DHT22;13809;48.632;11.576;2024-02-14T12:38:56;14.40;37.60
26035;DHT22;13809;48.632;11.576;2024-02-14T12:44:00;14.50;37.80
26035;DHT22;13809;48.632;11.576;2024-02-14T12:49:05;14.40;37.70
26035;DHT22;13809;48.632;11.576;2024-02-14T12:54:09;14.40;37.70
26035;DHT22;13809;48.632;11.576;2024-02-14T12:59:17;14.40;37.70
26035;DHT22;13809;48.632;11.576;2024-02-14T13:04:22;14.40;37.70
26035;DHT22;13809;48.632;11.576;2024-02-14T13:09:26;14.30;38.90
26035;DHT22;13809;48.632;11.576;2024-02-14T13:14:30;14.40;38.20
26035;DHT22;13809;48.632;11.576;2024-02-14T13:19:36;14.40;38.00
26035;DHT22;13809;48.632;11.576;2024-02-14T13:24:41;14.50;37.90
26035;DHT22;13809;48.632;11.576;2024-02-14T13:29:44;14.50;37.90
26035;DHT22;13809;48.632;11.576;2024-02-14T13:34:49;14.60;38.60
26035;DHT22;13809;48.632;11.576;2024-02-14T13:39:52;14.70;37.70
26035;DHT22;13809;48.632;11.576;2024-02-14T13:44:55;14.90;38.10
26035;DHT22;13809;48.632;11.576;2024-02-14T13:50:00;15.00;37.60
26035;DHT22;13809;48.632;11.576;2024-02-14T13:55:06;15.10;37.40
26035;DHT22;13809;48.632;11.576;2024-02-14T14:00:11;15.20;37.30
26035;DHT22;13809;48.632;11.576;2024-02-14T14:05:16;15.40;37.20
26035;DHT22;13809;48.632;11.576;2024-02-14T14:10:20;15.50;36.80
26035;DHT22;13809;48.632;11.576;2024-02-14T14:15:25;15.60;37.10
26035;DHT22;13809;48.632;11.576;2024-02-14T14:20:32;15.60;36.80
26035;DHT22;13809;48.632;11.576;2024-02-14T14:25:36;15.70;36.40
26035;DHT22;13809;48.632;11.576;2024-02-14T14:30:39;15.70;36.70
26035;DHT22;13809;48.632;11.576;2024-02-14T14:35:44;15.80;36.60
26035;DHT22;13809;48.632;11.576;2024-02-14T14:40:47;15.80;36.30
26035;DHT22;13809;48.632;11.576;2024-02-14T14:45:51;15.80;36.50
26035;DHT22;13809;48.632;11.576;2024-02-14T14:50:57;15.80;36.40
26035;DHT22;13809;48.632;11.576;2024-02-14T14:56:01;15.90;36.20
26035;DHT22;13809;48.632;11.576;2024-02-14T15:01:04;15.90;37.20
26035;DHT22;13809;48.632;11.576;2024-02-14T15:06:09;15.90;36.40
26035;DHT22;13809;48.632;11.576;2024-02-14T15:11:13;15.90;36.20
26035;DHT22;13809;48.632;11.576;2024-02-14T15:16:18;15.90;36.20
26035;DHT22;13809;48.632;11.576;2024-02-14T15:21:24;15.80;36.30
26035;DHT22;13809;48.632;11.576;2024-02-14T15:26:30;15.80;36.10
26035;DHT22;13809;48.632;11.576;2024-02-14T15:31:42;15.70;35.80
26035;DHT22;13809;48.632;11.576;2024-02-14T15:37:04;15.70;36.00
26035;DHT22;13809;48.632;11.576;2024-02-14T15:42:07;15.60;35.90
26035;DHT22;13809;48.632;11.576;2024-02-14T15:47:12;15.60;36.20
26035;DHT22;13809;48.632;11.576;2024-02-14T15:52:16;15.50;36.20
26035;DHT22;13809;48.632;11.576;2024-02-14T15:57:20;15.50;36.20
26035;DHT22;13809;48.632;11.576;2024-02-14T16:02:23;15.50;36.50
26035;DHT22;13809;48.632;11.576;2024-02-14T16:07:28;15.40;36.50
26035;DHT22;13809;48.632;11.576;2024-02-14T16:12:31;15.40;36.50
26035;DHT22;13809;48.632;11.576;2024-02-14T16:17:34;15.30;36.60
26035;DHT22;13809;48.632;11.576;2024-02-14T16:22:39;15.20;36.70
26035;DHT22;13809;48.632;11.576;2024-02-14T16:27:43;15.20;36.70
26035;DHT22;13809;48.632;11.576;2024-02-14T16:32:47;15.30;36.80
26035;DHT22;13809;48.632;11.576;2024-02-14T16:37:52;15.20;36.90
26035;DHT22;13809;48.632;11.576;2024-02-14T16:42:56;15.20;36.80
26035;DHT22;13809;48.632;11.576;2024-02-14T16:48:00;15.10;37.10
26035;DHT22;13809;48.632;11.576;2024-02-14T16:53:05;15.10;37.10
26035;DHT22;13809;48.632;11.576;2024-02-14T16:58:09;15.10;37.00
26035;DHT22;13809;48.632;11.576;2024-02-14T17:03:12;15.10;37.10
26035;DHT22;13809;48.632;11.576;2024-02-14T17:08:19;15.00;37.10
26035;DHT22;13809;48.632;11.576;2024-02-14T17:13:26;14.90;37.30
26035;DHT22;13809;48.632;11.576;2024-02-14T17:18:29;14.80;37.50
26035;DHT22;13809;48.632;11.576;2024-02-14T17:23:35;14.80;37.40
26035;DHT22;13809;48.632;11.576;2024-02-14T17:28:41;14.80;37.50
26035;DHT22;13809;48.632;11.576;2024-02-14T17:33:44;14.80;37.50
26035;DHT22;13809;48.632;11.576;2024-02-14T17:38:50;14.80;37.50
26035;DHT22;13809;48.632;11.576;2024-02-14T17:43:54;14.80;37.60
26035;DHT22;13809;48.632;11.576;2024-02-14T17:48:57;14.80;37.70
26035;DHT22;13809;48.632;11.576;2024-02-14T17:54:02;14.80;37.50
26035;DHT22;13809;48.632;11.576;2024-02-14T17:59:09;14.80;37.50
26035;DHT22;13809;48.632;11.576;2024-02-14T18:04:12;14.80;37.40
26035;DHT22;13809;48.632;11.576;2024-02-14T18:09:16;14.80;37.40
26035;DHT22;13809;48.632;11.576;2024-02-14T18:14:20;14.80;37.70
26035;DHT22;13809;48.632;11.576;2024-02-14T18:19:23;14.70;37.60
26035;DHT22;13809;48.632;11.576;2024-02-14T18:24:27;14.70;37.70
26035;DHT22;13809;48.632;11.576;2024-02-14T18:29:31;14.70;37.90
26035;DHT22;13809;48.632;11.576;2024-02-14T18:34:34;14.60;37.60
26035;DHT22;13809;48.632;11.576;2024-02-14T18:39:38;14.60;37.60
26035;DHT22;13809;48.632;11.576;2024-02-14T18:44:42;14.50;37.90
26035;DHT22;13809;48.632;11.576;2024-02-14T18:49:45;14.40;37.80
26035;DHT22;13809;48.632;11.576;2024-02-14T18:54:50;14.40;38.00
26035;DHT22;13809;48.632;11.576;2024-02-14T18:59:53;14.40;38.10
26035;DHT22;13809;48.632;11.576;2024-02-14T19:04:56;14.30;38.00
26035;DHT22;13809;48.632;11.576;2024-02-14T19:10:01;14.20;38.10
26035;DHT22;13809;48.632;11.576;2024-02-14T19:15:06;14.00;38.60
26035;DHT22;13809;48.632;11.576;2024-02-14T19:20:11;13.80;38.60
26035;DHT22;13809;48.632;11.576;2024-02-14T19:25:15;13.80;38.80
26035;DHT22;13809;48.632;11.576;2024-02-14T19:30:19;13.70;39.20
26035;DHT22;13809;48.632;11.576;2024-02-14T19:35:23;13.70;39.20
26035;DHT22;13809;48.632;11.576;2024-02-14T19:40:28;13.60;39.20
26035;DHT22;13809;48.632;11.576;2024-02-14T19:45:31;13.60;39.70
26035;DHT22;13809;48.632;11.576;2024-02-14T19:50:38;13.60;39.40
26035;DHT22;13809;48.632;11.576;2024-02-14T19:55:43;13.50;39.60
26035;DHT22;13809;48.632;11.576;2024-02-14T20:00:47;13.50;40.10
26035;DHT22;13809;48.632;11.576;2024-02-14T20:05:51;13.40;39.90
26035;DHT22;13809;48.632;11.576;2024-02-14T20:10:56;13.40;40.10
26035;DHT22;13809;48.632;11.576;2024-02-14T20:16:01;13.40;40.30
26035;DHT22;13809;48.632;11.576;2024-02-14T20:21:04;13.30;40.00
26035;DHT22;13809;48.632;11.576;2024-02-14T20:26:10;13.30;40.10
26035;DHT22;13809;48.632;11.576;2024-02-14T20:31:13;13.20;40.40
26035;DHT22;13809;48.632;11.576;2024-02-14T20:36:16;13.20;40.20
26035;DHT22;13809;48.632;11.576;2024-02-14T20:41:21;13.20;40.40
26035;DHT22;13809;48.632;11.576;2024-02-14T20:46:24;13.20;40.70
26035;DHT22;13809;48.632;11.576;2024-02-14T20:51:28;13.20;40.60
26035;DHT22;13809;48.632;11.576;2024-02-14T20:56:34;13.20;40.60
26035;DHT22;13809;48.632;11.576;2024-02-14T21:01:38;13.20;40.80
26035;DHT22;13809;48.632;11.576;2024-02-14T21:06:41;13.20;40.60
26035;DHT22;13809;48.632;11.576;2024-02-14T21:11:45;13.30;40.60
26035;DHT22;13809;48.632;11.576;2024-02-14T21:16:49;13.30;40.60
26035;DHT22;13809;48.632;11.576;2024-02-14T21:21:52;13.40;40.50
26035;DHT22;13809;48.632;11.576;2024-02-14T21:26:56;13.30;40.40
26035;DHT22;13809;48.632;11.576;2024-02-14T21:32:00;13.40;40.90
26035;DHT22;13809;48.632;11.576;2024-02-14T21:37:03;13.40;40.70
26035;DHT22;13809;48.632;11.576;2024-02-14T21:42:08;13.40;40.50
26035;DHT22;13809;48.632;11.576;2024-02-14T21:47:12;13.40;40.70
26035;DHT22;13809;48.632;11.576;2024-02-14T21:52:16;13.50;40.40
26035;DHT22;13809;48.632;11.576;2024-02-14T21:57:21;13.50;40.30
26035;DHT22;13809;48.632;11.576;2024-02-14T22:02:25;13.50;40.40
26035;DHT22;13809;48.632;11.576;2024-02-14T22:07:29;13.50;40.20
26035;DHT22;13809;48.632;11.576;2024-02-14T22:12:34;13.50;40.00
26035;DHT22;13809;48.632;11.576;2024-02-14T22:17:38;13.50;40.30
26035;DHT22;13809;48.632;11.576;2024-02-14T22:22:43;13.50;40.10
26035;DHT22;13809;48.632;11.576;2024-02-14T22:27:48;13.40;40.10
26035;DHT22;13809;48.632;11.576;2024-02-14T22:32:52;13.40;40.90
26035;DHT22;13809;48.632;11.576;2024-02-14T22:37:55;13.30;40.90
26035;DHT22;13809;48.632;11.576;2024-02-14T22:43:00;13.40;41.20
26035;DHT22;13809;48.632;11.576;2024-02-14T22:48:05;13.40;41.60
26035;DHT22;13809;48.632;11.576;2024-02-14T22:53:09;13.40;42.00
26035;DHT22;13809;48.632;11.576;2024-02-14T22:58:13;13.30;41.20
26035;DHT22;13809;48.632;11.576;2024-02-14T23:03:17;13.30;41.70
26035;DHT22;13809;48.632;11.576;2024-02-14T23:08:20;13.20;41.30
26035;DHT22;13809;48.632;11.576;2024-02-14T23:13:25;13.30;41.30
26035;DHT22;13809;48.632;11.576;2024-02-14T23:18:28;13.30;41.50
26035;DHT22;13809;48.632;11.576;2024-02-14T23:23:32;13.30;41.10
26035;DHT22;13809;48.632;11.576;2024-02-14T23:28:36;13.30;41.20
26035;DHT22;13809;48.632;11.576;2024-02-14T23:33:40;13.30;41.60
26035;DHT22;13809;48.632;11.576;2024-02-14T23:38:44;13.30;41.20
26035;DHT22;13809;48.632;11.576;2024-02-14T23:43:48;13.30;41.40
26035;DHT22;13809;48.632;11.576;2024-02-14T23:48:54;13.30;41.50
26035;DHT22;13809;48.632;11.576;2024-02-14T23:53:58;13.30;41.20
26035;DHT22;13809;48.632;11.576;2024-02-14T23:59:03;13.30;41.10
